sensor_id;sensor_type;location;lat;lon;timestamp;P1;durP1;ratioP1;P2;durP2;ratioP2
71969;SDS011;59838;52.152;5.436;2022-12-18T00:02:09;44.90;;;15.05;;
71969;SDS011;59838;52.152;5.436;2022-12-18T00:04:35;39.17;;;12.88;;
71969;SDS011;59838;52.152;5.436;2022-12-18T00:07:02;40.30;;;13.63;;
71969;SDS011;59838;52.152;5.436;2022-12-18T00:09:29;31.90;;;12.23;;
71969;SDS011;59838;52.152;5.436;2022-12-18T00:12:05;40.75;;;12.73;;
71969;SDS011;59838;52.152;5.436;2022-12-18T00:14:41;36.35;;;12.57;;
71969;SDS011;59838;52.152;5.436;2022-12-18T00:17:07;37.60;;;12.70;;
71969;SDS011;59838;52.152;5.436;2022-12-18T00:19:34;37.80;;;14.13;;
71969;SDS011;59838;52.152;5.436;2022-12-18T00:22:00;39.00;;;14.77;;
71969;SDS011;59838;52.152;5.436;2022-12-18T00:24:27;37.75;;;12.85;;
71969;SDS011;59838;52.152;5.436;2022-12-18T00:26:53;39.83;;;12.93;;
71969;SDS011;59838;52.152;5.436;2022-12-18T00:29:19;30.23;;;11.48;;
71969;SDS011;59838;52.152;5.436;2022-12-18T00:31:46;41.58;;;13.73;;
71969;SDS011;59838;52.152;5.436;2022-12-18T00:34:13;36.53;;;13.23;;
71969;SDS011;59838;52.152;5.436;2022-12-18T00:36:40;35.63;;;13.07;;
71969;SDS011;59838;52.152;5.436;2022-12-18T00:39:07;37.30;;;12.43;;
71969;SDS011;59838;52.152;5.436;2022-12-18T00:41:34;38.08;;;12.88;;
71969;SDS011;59838;52.152;5.436;2022-12-18T00:44:19;45.40;;;13.70;;
71969;SDS011;59838;52.152;5.436;2022-12-18T00:46:46;42.08;;;12.82;;
71969;SDS011;59838;52.152;5.436;2022-12-18T00:49:14;42.92;;;14.48;;
71969;SDS011;59838;52.152;5.436;2022-12-18T00:51:41;36.83;;;12.80;;
71969;SDS011;59838;52.152;5.436;2022-12-18T00:54:09;38.25;;;14.55;;
71969;SDS011;59838;52.152;5.436;2022-12-18T00:56:36;42.10;;;14.43;;
71969;SDS011;59838;52.152;5.436;2022-12-18T00:59:14;41.05;;;15.48;;
71969;SDS011;59838;52.152;5.436;2022-12-18T01:01:40;33.13;;;11.75;;
71969;SDS011;59838;52.152;5.436;2022-12-18T01:04:07;42.42;;;13.65;;
71969;SDS011;59838;52.152;5.436;2022-12-18T01:06:34;44.88;;;13.85;;
71969;SDS011;59838;52.152;5.436;2022-12-18T01:09:00;42.10;;;14.18;;
71969;SDS011;59838;52.152;5.436;2022-12-18T01:11:27;32.17;;;12.13;;
71969;SDS011;59838;52.152;5.436;2022-12-18T01:13:54;39.05;;;13.68;;
71969;SDS011;59838;52.152;5.436;2022-12-18T01:16:21;43.20;;;14.48;;
71969;SDS011;59838;52.152;5.436;2022-12-18T01:18:50;47.42;;;15.95;;
71969;SDS011;59838;52.152;5.436;2022-12-18T01:21:19;42.20;;;13.27;;
71969;SDS011;59838;52.152;5.436;2022-12-18T01:23:46;40.20;;;13.03;;
71969;SDS011;59838;52.152;5.436;2022-12-18T01:26:14;45.15;;;14.85;;
71969;SDS011;59838;52.152;5.436;2022-12-18T01:28:42;37.40;;;13.00;;
71969;SDS011;59838;52.152;5.436;2022-12-18T01:31:14;43.63;;;15.05;;
71969;SDS011;59838;52.152;5.436;2022-12-18T01:33:50;35.78;;;12.95;;
71969;SDS011;59838;52.152;5.436;2022-12-18T01:38:51;32.90;;;11.52;;
71969;SDS011;59838;52.152;5.436;2022-12-18T01:41:20;39.35;;;12.82;;
71969;SDS011;59838;52.152;5.436;2022-12-18T01:43:53;39.58;;;14.07;;
71969;SDS011;59838;52.152;5.436;2022-12-18T01:46:22;36.80;;;12.05;;
71969;SDS011;59838;52.152;5.436;2022-12-18T01:48:53;35.88;;;13.10;;
71969;SDS011;59838;52.152;5.436;2022-12-18T01:51:24;37.33;;;13.95;;
71969;SDS011;59838;52.152;5.436;2022-12-18T01:53:52;36.15;;;13.43;;
71969;SDS011;59838;52.152;5.436;2022-12-18T01:56:19;41.78;;;13.45;;
71969;SDS011;59838;52.152;5.436;2022-12-18T01:58:58;34.67;;;11.48;;
71969;SDS011;59838;52.152;5.436;2022-12-18T02:01:29;47.00;;;13.20;;
71969;SDS011;59838;52.152;5.436;2022-12-18T02:04:10;38.30;;;12.13;;
71969;SDS011;59838;52.152;5.436;2022-12-18T02:06:59;36.13;;;12.95;;
71969;SDS011;59838;52.152;5.436;2022-12-18T02:09:34;32.20;;;11.40;;
71969;SDS011;59838;52.152;5.436;2022-12-18T02:12:16;42.67;;;13.05;;
71969;SDS011;59838;52.152;5.436;2022-12-18T02:17:43;36.33;;;13.85;;
71969;SDS011;59838;52.152;5.436;2022-12-18T02:20:23;34.38;;;12.98;;
71969;SDS011;59838;52.152;5.436;2022-12-18T02:28:31;31.25;;;12.50;;
71969;SDS011;59838;52.152;5.436;2022-12-18T02:31:01;30.00;;;12.13;;
71969;SDS011;59838;52.152;5.436;2022-12-18T02:33:32;31.80;;;11.05;;
71969;SDS011;59838;52.152;5.436;2022-12-18T02:36:02;29.35;;;10.15;;
71969;SDS011;59838;52.152;5.436;2022-12-18T02:38:30;34.42;;;11.73;;
71969;SDS011;59838;52.152;5.436;2022-12-18T02:40:58;31.10;;;12.07;;
71969;SDS011;59838;52.152;5.436;2022-12-18T02:43:25;33.08;;;11.07;;
71969;SDS011;59838;52.152;5.436;2022-12-18T02:45:53;27.20;;;11.55;;
71969;SDS011;59838;52.152;5.436;2022-12-18T02:48:31;35.10;;;12.60;;
71969;SDS011;59838;52.152;5.436;2022-12-18T02:53:58;28.20;;;12.23;;
71969;SDS011;59838;52.152;5.436;2022-12-18T02:56:34;31.00;;;11.32;;
71969;SDS011;59838;52.152;5.436;2022-12-18T02:59:15;36.15;;;12.75;;
71969;SDS011;59838;52.152;5.436;2022-12-18T03:01:58;30.35;;;11.45;;
71969;SDS011;59838;52.152;5.436;2022-12-18T03:04:35;33.08;;;10.45;;
71969;SDS011;59838;52.152;5.436;2022-12-18T03:07:09;28.43;;;10.73;;
71969;SDS011;59838;52.152;5.436;2022-12-18T03:09:42;25.10;;;9.55;;
71969;SDS011;59838;52.152;5.436;2022-12-18T03:12:14;29.10;;;11.85;;
71969;SDS011;59838;52.152;5.436;2022-12-18T03:17:28;27.30;;;10.05;;
71969;SDS011;59838;52.152;5.436;2022-12-18T03:20:00;30.87;;;10.23;;
71969;SDS011;59838;52.152;5.436;2022-12-18T03:22:30;35.40;;;10.30;;
71969;SDS011;59838;52.152;5.436;2022-12-18T03:25:00;29.05;;;11.15;;
71969;SDS011;59838;52.152;5.436;2022-12-18T03:27:28;23.13;;;10.43;;
71969;SDS011;59838;52.152;5.436;2022-12-18T03:30:05;26.75;;;9.93;;
71969;SDS011;59838;52.152;5.436;2022-12-18T03:32:43;25.40;;;9.57;;
71969;SDS011;59838;52.152;5.436;2022-12-18T03:35:26;31.50;;;10.93;;
71969;SDS011;59838;52.152;5.436;2022-12-18T03:37:57;25.95;;;10.07;;
71969;SDS011;59838;52.152;5.436;2022-12-18T03:40:26;27.00;;;10.07;;
71969;SDS011;59838;52.152;5.436;2022-12-18T03:43:09;28.65;;;11.10;;
71969;SDS011;59838;52.152;5.436;2022-12-18T03:45:44;25.27;;;9.13;;
71969;SDS011;59838;52.152;5.436;2022-12-18T03:48:21;23.75;;;8.40;;
71969;SDS011;59838;52.152;5.436;2022-12-18T03:51:25;27.75;;;8.82;;
71969;SDS011;59838;52.152;5.436;2022-12-18T03:53:58;28.08;;;10.30;;
71969;SDS011;59838;52.152;5.436;2022-12-18T03:56:28;25.08;;;9.88;;
71969;SDS011;59838;52.152;5.436;2022-12-18T03:58:58;24.63;;;10.03;;
71969;SDS011;59838;52.152;5.436;2022-12-18T04:01:31;25.02;;;9.40;;
71969;SDS011;59838;52.152;5.436;2022-12-18T04:04:01;25.92;;;8.90;;
71969;SDS011;59838;52.152;5.436;2022-12-18T04:06:29;21.67;;;9.07;;
71969;SDS011;59838;52.152;5.436;2022-12-18T04:09:01;24.48;;;9.70;;
71969;SDS011;59838;52.152;5.436;2022-12-18T04:11:27;25.93;;;9.80;;
71969;SDS011;59838;52.152;5.436;2022-12-18T04:13:57;26.63;;;8.80;;
71969;SDS011;59838;52.152;5.436;2022-12-18T04:16:27;20.80;;;8.73;;
71969;SDS011;59838;52.152;5.436;2022-12-18T04:18:54;20.13;;;9.07;;
71969;SDS011;59838;52.152;5.436;2022-12-18T04:21:21;21.20;;;8.35;;
71969;SDS011;59838;52.152;5.436;2022-12-18T04:23:48;25.73;;;9.00;;
71969;SDS011;59838;52.152;5.436;2022-12-18T04:26:15;23.17;;;7.60;;
71969;SDS011;59838;52.152;5.436;2022-12-18T04:28:41;24.27;;;8.50;;
71969;SDS011;59838;52.152;5.436;2022-12-18T04:31:08;23.35;;;8.63;;
71969;SDS011;59838;52.152;5.436;2022-12-18T04:33:35;20.75;;;8.32;;
71969;SDS011;59838;52.152;5.436;2022-12-18T04:36:02;15.27;;;8.30;;
71969;SDS011;59838;52.152;5.436;2022-12-18T04:38:29;21.45;;;8.70;;
71969;SDS011;59838;52.152;5.436;2022-12-18T04:40:56;20.40;;;8.43;;
71969;SDS011;59838;52.152;5.436;2022-12-18T04:43:22;22.30;;;8.93;;
71969;SDS011;59838;52.152;5.436;2022-12-18T04:45:48;21.58;;;8.52;;
71969;SDS011;59838;52.152;5.436;2022-12-18T04:48:15;15.97;;;8.77;;
71969;SDS011;59838;52.152;5.436;2022-12-18T04:50:41;19.75;;;9.05;;
71969;SDS011;59838;52.152;5.436;2022-12-18T04:53:08;22.33;;;7.35;;
71969;SDS011;59838;52.152;5.436;2022-12-18T04:55:35;15.88;;;6.25;;
71969;SDS011;59838;52.152;5.436;2022-12-18T04:58:01;21.08;;;7.93;;
71969;SDS011;59838;52.152;5.436;2022-12-18T05:00:27;20.33;;;7.93;;
71969;SDS011;59838;52.152;5.436;2022-12-18T05:02:54;13.32;;;6.50;;
71969;SDS011;59838;52.152;5.436;2022-12-18T05:05:21;17.48;;;7.47;;
71969;SDS011;59838;52.152;5.436;2022-12-18T05:07:47;17.20;;;8.20;;
71969;SDS011;59838;52.152;5.436;2022-12-18T05:10:14;17.77;;;8.10;;
71969;SDS011;59838;52.152;5.436;2022-12-18T05:12:40;13.93;;;7.60;;
71969;SDS011;59838;52.152;5.436;2022-12-18T05:15:26;16.73;;;6.07;;
71969;SDS011;59838;52.152;5.436;2022-12-18T05:17:57;17.40;;;7.00;;
71969;SDS011;59838;52.152;5.436;2022-12-18T05:20:24;16.55;;;6.57;;
71969;SDS011;59838;52.152;5.436;2022-12-18T05:22:52;16.42;;;6.97;;
71969;SDS011;59838;52.152;5.436;2022-12-18T05:25:19;18.20;;;6.97;;
71969;SDS011;59838;52.152;5.436;2022-12-18T05:27:47;17.13;;;7.03;;
71969;SDS011;59838;52.152;5.436;2022-12-18T05:30:14;16.67;;;7.13;;
71969;SDS011;59838;52.152;5.436;2022-12-18T05:32:41;15.10;;;6.30;;
71969;SDS011;59838;52.152;5.436;2022-12-18T05:35:08;18.02;;;7.18;;
71969;SDS011;59838;52.152;5.436;2022-12-18T05:37:35;12.73;;;5.60;;
71969;SDS011;59838;52.152;5.436;2022-12-18T05:40:08;14.07;;;6.30;;
71969;SDS011;59838;52.152;5.436;2022-12-18T05:42:36;21.58;;;7.50;;
71969;SDS011;59838;52.152;5.436;2022-12-18T05:45:03;15.30;;;6.40;;
71969;SDS011;59838;52.152;5.436;2022-12-18T05:47:31;12.85;;;6.03;;
71969;SDS011;59838;52.152;5.436;2022-12-18T05:49:57;16.10;;;6.83;;
71969;SDS011;59838;52.152;5.436;2022-12-18T05:52:24;15.68;;;6.47;;
71969;SDS011;59838;52.152;5.436;2022-12-18T05:54:50;14.02;;;6.30;;
71969;SDS011;59838;52.152;5.436;2022-12-18T05:57:17;23.92;;;7.43;;
71969;SDS011;59838;52.152;5.436;2022-12-18T05:59:43;14.52;;;6.18;;
71969;SDS011;59838;52.152;5.436;2022-12-18T06:02:10;15.30;;;5.63;;
71969;SDS011;59838;52.152;5.436;2022-12-18T06:04:36;14.55;;;6.88;;
71969;SDS011;59838;52.152;5.436;2022-12-18T06:07:03;13.98;;;6.15;;
71969;SDS011;59838;52.152;5.436;2022-12-18T06:09:29;18.10;;;7.38;;
71969;SDS011;59838;52.152;5.436;2022-12-18T06:11:56;13.88;;;6.13;;
71969;SDS011;59838;52.152;5.436;2022-12-18T06:14:22;20.07;;;6.17;;
71969;SDS011;59838;52.152;5.436;2022-12-18T06:16:50;17.50;;;7.28;;
71969;SDS011;59838;52.152;5.436;2022-12-18T06:19:17;16.33;;;6.85;;
71969;SDS011;59838;52.152;5.436;2022-12-18T06:21:43;16.85;;;6.95;;
71969;SDS011;59838;52.152;5.436;2022-12-18T06:24:10;19.52;;;6.85;;
71969;SDS011;59838;52.152;5.436;2022-12-18T06:26:37;15.73;;;7.03;;
71969;SDS011;59838;52.152;5.436;2022-12-18T06:29:06;14.77;;;6.05;;
71969;SDS011;59838;52.152;5.436;2022-12-18T06:31:33;17.27;;;6.75;;
71969;SDS011;59838;52.152;5.436;2022-12-18T06:34:02;14.43;;;6.25;;
71969;SDS011;59838;52.152;5.436;2022-12-18T06:36:29;15.05;;;6.68;;
71969;SDS011;59838;52.152;5.436;2022-12-18T06:38:56;15.27;;;6.73;;
71969;SDS011;59838;52.152;5.436;2022-12-18T06:41:23;14.60;;;6.53;;
71969;SDS011;59838;52.152;5.436;2022-12-18T06:43:50;21.17;;;7.93;;
71969;SDS011;59838;52.152;5.436;2022-12-18T06:46:20;15.32;;;6.97;;
71969;SDS011;59838;52.152;5.436;2022-12-18T06:48:47;10.40;;;5.80;;
71969;SDS011;59838;52.152;5.436;2022-12-18T06:51:19;15.43;;;6.80;;
71969;SDS011;59838;52.152;5.436;2022-12-18T06:53:47;16.15;;;6.68;;
71969;SDS011;59838;52.152;5.436;2022-12-18T06:56:13;12.23;;;5.35;;
71969;SDS011;59838;52.152;5.436;2022-12-18T06:58:40;16.08;;;6.68;;
71969;SDS011;59838;52.152;5.436;2022-12-18T07:01:08;10.40;;;5.45;;
71969;SDS011;59838;52.152;5.436;2022-12-18T07:03:36;14.17;;;6.43;;
71969;SDS011;59838;52.152;5.436;2022-12-18T07:06:04;11.75;;;4.75;;
71969;SDS011;59838;52.152;5.436;2022-12-18T07:08:32;12.23;;;5.45;;
71969;SDS011;59838;52.152;5.436;2022-12-18T07:11:02;13.15;;;5.28;;
71969;SDS011;59838;52.152;5.436;2022-12-18T07:13:29;14.45;;;5.13;;
71969;SDS011;59838;52.152;5.436;2022-12-18T07:16:02;10.97;;;5.77;;
71969;SDS011;59838;52.152;5.436;2022-12-18T07:18:42;13.30;;;6.03;;
71969;SDS011;59838;52.152;5.436;2022-12-18T07:21:09;7.93;;;4.45;;
71969;SDS011;59838;52.152;5.436;2022-12-18T07:23:37;11.63;;;5.25;;
71969;SDS011;59838;52.152;5.436;2022-12-18T07:26:09;13.52;;;5.55;;
71969;SDS011;59838;52.152;5.436;2022-12-18T07:28:38;11.50;;;5.83;;
71969;SDS011;59838;52.152;5.436;2022-12-18T07:31:07;14.93;;;4.68;;
71969;SDS011;59838;52.152;5.436;2022-12-18T07:33:38;11.07;;;5.20;;
71969;SDS011;59838;52.152;5.436;2022-12-18T07:36:06;10.98;;;5.60;;
71969;SDS011;59838;52.152;5.436;2022-12-18T07:38:34;11.85;;;6.07;;
71969;SDS011;59838;52.152;5.436;2022-12-18T07:41:05;8.60;;;4.43;;
71969;SDS011;59838;52.152;5.436;2022-12-18T07:43:36;12.60;;;5.63;;
71969;SDS011;59838;52.152;5.436;2022-12-18T07:46:04;16.40;;;5.30;;
71969;SDS011;59838;52.152;5.436;2022-12-18T07:48:31;13.02;;;5.10;;
71969;SDS011;59838;52.152;5.436;2022-12-18T07:51:05;12.07;;;5.78;;
71969;SDS011;59838;52.152;5.436;2022-12-18T07:53:32;13.27;;;5.40;;
71969;SDS011;59838;52.152;5.436;2022-12-18T07:56:00;11.27;;;5.30;;
71969;SDS011;59838;52.152;5.436;2022-12-18T07:58:55;9.02;;;4.82;;
71969;SDS011;59838;52.152;5.436;2022-12-18T08:01:22;11.07;;;4.45;;
71969;SDS011;59838;52.152;5.436;2022-12-18T08:03:49;8.38;;;5.20;;
71969;SDS011;59838;52.152;5.436;2022-12-18T08:06:17;10.77;;;5.33;;
71969;SDS011;59838;52.152;5.436;2022-12-18T08:08:44;16.05;;;5.57;;
71969;SDS011;59838;52.152;5.436;2022-12-18T08:11:10;11.50;;;5.55;;
71969;SDS011;59838;52.152;5.436;2022-12-18T08:13:36;14.50;;;5.85;;
71969;SDS011;59838;52.152;5.436;2022-12-18T08:16:04;8.77;;;4.82;;
71969;SDS011;59838;52.152;5.436;2022-12-18T08:18:33;17.23;;;6.87;;
71969;SDS011;59838;52.152;5.436;2022-12-18T08:21:08;10.57;;;5.40;;
71969;SDS011;59838;52.152;5.436;2022-12-18T08:23:41;15.43;;;5.20;;
71969;SDS011;59838;52.152;5.436;2022-12-18T08:26:10;13.10;;;5.85;;
71969;SDS011;59838;52.152;5.436;2022-12-18T08:28:37;12.55;;;5.93;;
71969;SDS011;59838;52.152;5.436;2022-12-18T08:31:04;16.15;;;6.28;;
71969;SDS011;59838;52.152;5.436;2022-12-18T08:33:31;10.73;;;5.13;;
71969;SDS011;59838;52.152;5.436;2022-12-18T08:35:58;15.10;;;5.35;;
71969;SDS011;59838;52.152;5.436;2022-12-18T08:38:26;11.38;;;5.95;;
71969;SDS011;59838;52.152;5.436;2022-12-18T08:41:05;10.18;;;5.75;;
71969;SDS011;59838;52.152;5.436;2022-12-18T08:43:33;12.93;;;5.97;;
71969;SDS011;59838;52.152;5.436;2022-12-18T08:46:19;10.63;;;5.25;;
71969;SDS011;59838;52.152;5.436;2022-12-18T08:48:46;12.88;;;6.35;;
71969;SDS011;59838;52.152;5.436;2022-12-18T08:51:15;13.30;;;5.70;;
71969;SDS011;59838;52.152;5.436;2022-12-18T08:53:42;12.50;;;5.60;;
71969;SDS011;59838;52.152;5.436;2022-12-18T08:56:10;15.63;;;6.53;;
71969;SDS011;59838;52.152;5.436;2022-12-18T08:58:37;13.18;;;6.68;;
71969;SDS011;59838;52.152;5.436;2022-12-18T09:01:05;10.63;;;5.55;;
71969;SDS011;59838;52.152;5.436;2022-12-18T09:03:33;9.93;;;5.82;;
71969;SDS011;59838;52.152;5.436;2022-12-18T09:05:59;12.32;;;5.72;;
71969;SDS011;59838;52.152;5.436;2022-12-18T09:08:26;10.53;;;5.47;;
71969;SDS011;59838;52.152;5.436;2022-12-18T09:10:52;11.40;;;5.70;;
71969;SDS011;59838;52.152;5.436;2022-12-18T09:13:19;13.93;;;5.95;;
71969;SDS011;59838;52.152;5.436;2022-12-18T09:15:50;13.32;;;5.63;;
71969;SDS011;59838;52.152;5.436;2022-12-18T09:18:19;11.65;;;6.05;;
71969;SDS011;59838;52.152;5.436;2022-12-18T09:20:47;10.35;;;5.53;;
71969;SDS011;59838;52.152;5.436;2022-12-18T09:23:14;12.15;;;5.20;;
71969;SDS011;59838;52.152;5.436;2022-12-18T09:25:40;14.93;;;5.07;;
71969;SDS011;59838;52.152;5.436;2022-12-18T09:28:12;11.13;;;5.20;;
71969;SDS011;59838;52.152;5.436;2022-12-18T09:30:43;13.15;;;6.38;;
71969;SDS011;59838;52.152;5.436;2022-12-18T09:33:11;10.13;;;6.13;;
71969;SDS011;59838;52.152;5.436;2022-12-18T09:35:37;11.52;;;5.40;;
71969;SDS011;59838;52.152;5.436;2022-12-18T09:38:05;13.80;;;5.35;;
71969;SDS011;59838;52.152;5.436;2022-12-18T09:40:34;11.23;;;5.85;;
71969;SDS011;59838;52.152;5.436;2022-12-18T09:43:18;12.77;;;5.80;;
71969;SDS011;59838;52.152;5.436;2022-12-18T09:45:51;15.15;;;5.10;;
71969;SDS011;59838;52.152;5.436;2022-12-18T09:48:28;11.50;;;5.32;;
71969;SDS011;59838;52.152;5.436;2022-12-18T09:51:00;9.50;;;4.30;;
71969;SDS011;59838;52.152;5.436;2022-12-18T09:53:33;10.02;;;4.20;;
71969;SDS011;59838;52.152;5.436;2022-12-18T09:56:04;9.90;;;4.68;;
71969;SDS011;59838;52.152;5.436;2022-12-18T09:58:31;13.02;;;5.78;;
71969;SDS011;59838;52.152;5.436;2022-12-18T10:01:10;9.98;;;4.60;;
71969;SDS011;59838;52.152;5.436;2022-12-18T10:03:40;13.05;;;5.50;;
71969;SDS011;59838;52.152;5.436;2022-12-18T10:11:58;7.32;;;4.47;;
71969;SDS011;59838;52.152;5.436;2022-12-18T10:14:37;13.07;;;4.28;;
71969;SDS011;59838;52.152;5.436;2022-12-18T10:19:54;14.90;;;5.93;;
71969;SDS011;59838;52.152;5.436;2022-12-18T10:27:42;7.53;;;4.15;;
71969;SDS011;59838;52.152;5.436;2022-12-18T10:30:13;10.13;;;5.25;;
71969;SDS011;59838;52.152;5.436;2022-12-18T10:32:42;9.73;;;4.47;;
71969;SDS011;59838;52.152;5.436;2022-12-18T10:35:16;9.40;;;4.53;;
71969;SDS011;59838;52.152;5.436;2022-12-18T10:40:30;10.75;;;4.88;;
71969;SDS011;59838;52.152;5.436;2022-12-18T10:43:04;8.75;;;4.03;;
71969;SDS011;59838;52.152;5.436;2022-12-18T10:45:36;9.38;;;5.25;;
71969;SDS011;59838;52.152;5.436;2022-12-18T10:48:02;10.88;;;5.55;;
71969;SDS011;59838;52.152;5.436;2022-12-18T10:50:33;10.38;;;4.20;;
71969;SDS011;59838;52.152;5.436;2022-12-18T10:53:26;7.80;;;4.18;;
71969;SDS011;59838;52.152;5.436;2022-12-18T10:55:56;11.07;;;4.47;;
71969;SDS011;59838;52.152;5.436;2022-12-18T10:58:29;9.90;;;5.03;;
71969;SDS011;59838;52.152;5.436;2022-12-18T11:01:02;9.25;;;4.55;;
71969;SDS011;59838;52.152;5.436;2022-12-18T11:03:44;8.57;;;4.18;;
71969;SDS011;59838;52.152;5.436;2022-12-18T11:06:13;9.20;;;3.90;;
71969;SDS011;59838;52.152;5.436;2022-12-18T11:08:41;11.45;;;3.92;;
71969;SDS011;59838;52.152;5.436;2022-12-18T11:11:22;11.90;;;3.95;;
71969;SDS011;59838;52.152;5.436;2022-12-18T11:14:05;9.38;;;5.38;;
71969;SDS011;59838;52.152;5.436;2022-12-18T11:16:48;9.15;;;4.60;;
71969;SDS011;59838;52.152;5.436;2022-12-18T11:19:36;11.35;;;4.72;;
71969;SDS011;59838;52.152;5.436;2022-12-18T11:22:21;8.93;;;4.07;;
71969;SDS011;59838;52.152;5.436;2022-12-18T11:24:52;8.15;;;4.63;;
71969;SDS011;59838;52.152;5.436;2022-12-18T11:27:47;9.23;;;4.47;;
71969;SDS011;59838;52.152;5.436;2022-12-18T11:30:35;14.25;;;5.20;;
71969;SDS011;59838;52.152;5.436;2022-12-18T11:33:21;9.40;;;4.93;;
71969;SDS011;59838;52.152;5.436;2022-12-18T11:38:23;8.07;;;3.88;;
71969;SDS011;59838;52.152;5.436;2022-12-18T11:43:58;11.35;;;4.47;;
71969;SDS011;59838;52.152;5.436;2022-12-18T11:46:32;11.68;;;4.72;;
71969;SDS011;59838;52.152;5.436;2022-12-18T11:49:12;8.93;;;4.85;;
71969;SDS011;59838;52.152;5.436;2022-12-18T11:51:52;9.57;;;4.63;;
71969;SDS011;59838;52.152;5.436;2022-12-18T11:54:26;10.07;;;4.82;;
71969;SDS011;59838;52.152;5.436;2022-12-18T11:56:54;8.70;;;4.95;;
71969;SDS011;59838;52.152;5.436;2022-12-18T11:59:33;9.38;;;4.55;;
71969;SDS011;59838;52.152;5.436;2022-12-18T12:05:04;8.13;;;4.47;;
71969;SDS011;59838;52.152;5.436;2022-12-18T12:07:50;8.05;;;4.47;;
71969;SDS011;59838;52.152;5.436;2022-12-18T12:10:31;10.82;;;5.40;;
71969;SDS011;59838;52.152;5.436;2022-12-18T12:18:36;10.50;;;5.25;;
71969;SDS011;59838;52.152;5.436;2022-12-18T12:21:17;8.68;;;5.13;;
71969;SDS011;59838;52.152;5.436;2022-12-18T12:30:08;13.27;;;6.00;;
71969;SDS011;59838;52.152;5.436;2022-12-18T12:38:42;8.40;;;4.57;;
71969;SDS011;59838;52.152;5.436;2022-12-18T12:41:18;10.43;;;4.95;;
71969;SDS011;59838;52.152;5.436;2022-12-18T12:44:13;10.70;;;5.53;;
71969;SDS011;59838;52.152;5.436;2022-12-18T12:46:45;9.13;;;4.57;;
71969;SDS011;59838;52.152;5.436;2022-12-18T12:49:15;6.97;;;4.38;;
71969;SDS011;59838;52.152;5.436;2022-12-18T12:51:45;10.73;;;5.55;;
71969;SDS011;59838;52.152;5.436;2022-12-18T12:54:17;8.98;;;4.78;;
71969;SDS011;59838;52.152;5.436;2022-12-18T13:02:36;7.95;;;4.82;;
71969;SDS011;59838;52.152;5.436;2022-12-18T13:05:19;12.35;;;5.68;;
71969;SDS011;59838;52.152;5.436;2022-12-18T13:08:04;10.25;;;4.95;;
71969;SDS011;59838;52.152;5.436;2022-12-18T13:10:37;11.18;;;4.78;;
71969;SDS011;59838;52.152;5.436;2022-12-18T13:15:39;10.75;;;5.50;;
71969;SDS011;59838;52.152;5.436;2022-12-18T13:18:15;11.15;;;5.80;;
71969;SDS011;59838;52.152;5.436;2022-12-18T13:20:45;10.38;;;5.40;;
71969;SDS011;59838;52.152;5.436;2022-12-18T13:25:59;12.10;;;5.60;;
71969;SDS011;59838;52.152;5.436;2022-12-18T13:28:54;7.82;;;4.97;;
71969;SDS011;59838;52.152;5.436;2022-12-18T13:34:09;9.32;;;4.63;;
71969;SDS011;59838;52.152;5.436;2022-12-18T13:36:54;11.27;;;5.05;;
71969;SDS011;59838;52.152;5.436;2022-12-18T13:39:23;13.27;;;5.80;;
71969;SDS011;59838;52.152;5.436;2022-12-18T13:44:34;11.23;;;4.93;;
71969;SDS011;59838;52.152;5.436;2022-12-18T13:49:55;10.55;;;4.78;;
71969;SDS011;59838;52.152;5.436;2022-12-18T13:52:26;9.18;;;4.63;;
71969;SDS011;59838;52.152;5.436;2022-12-18T13:55:00;11.98;;;4.47;;
71969;SDS011;59838;52.152;5.436;2022-12-18T13:57:33;9.45;;;5.53;;
71969;SDS011;59838;52.152;5.436;2022-12-18T14:03:00;11.63;;;5.70;;
71969;SDS011;59838;52.152;5.436;2022-12-18T14:05:36;12.98;;;5.20;;
71969;SDS011;59838;52.152;5.436;2022-12-18T14:08:05;12.80;;;5.57;;
71969;SDS011;59838;52.152;5.436;2022-12-18T14:10:39;8.77;;;5.40;;
71969;SDS011;59838;52.152;5.436;2022-12-18T14:13:24;9.82;;;5.63;;
71969;SDS011;59838;52.152;5.436;2022-12-18T14:15:55;12.35;;;5.93;;
71969;SDS011;59838;52.152;5.436;2022-12-18T14:18:36;14.60;;;6.63;;
71969;SDS011;59838;52.152;5.436;2022-12-18T14:21:26;9.70;;;5.28;;
71969;SDS011;59838;52.152;5.436;2022-12-18T14:26:32;16.00;;;6.57;;
71969;SDS011;59838;52.152;5.436;2022-12-18T14:29:00;13.45;;;6.65;;
71969;SDS011;59838;52.152;5.436;2022-12-18T14:31:44;16.17;;;6.13;;
71969;SDS011;59838;52.152;5.436;2022-12-18T14:34:17;16.35;;;5.50;;
71969;SDS011;59838;52.152;5.436;2022-12-18T14:36:51;12.63;;;5.85;;
71969;SDS011;59838;52.152;5.436;2022-12-18T14:39:19;9.18;;;5.30;;
71969;SDS011;59838;52.152;5.436;2022-12-18T14:41:48;14.55;;;5.78;;
71969;SDS011;59838;52.152;5.436;2022-12-18T14:44:15;12.98;;;5.75;;
71969;SDS011;59838;52.152;5.436;2022-12-18T14:46:45;12.63;;;5.50;;
71969;SDS011;59838;52.152;5.436;2022-12-18T14:49:29;11.77;;;5.55;;
71969;SDS011;59838;52.152;5.436;2022-12-18T14:51:58;11.23;;;5.10;;
71969;SDS011;59838;52.152;5.436;2022-12-18T14:54:26;10.85;;;5.88;;
71969;SDS011;59838;52.152;5.436;2022-12-18T14:59:47;9.73;;;5.53;;
71969;SDS011;59838;52.152;5.436;2022-12-18T15:02:23;11.13;;;5.32;;
71969;SDS011;59838;52.152;5.436;2022-12-18T15:05:00;11.43;;;6.28;;
71969;SDS011;59838;52.152;5.436;2022-12-18T15:07:45;13.52;;;5.75;;
71969;SDS011;59838;52.152;5.436;2022-12-18T15:10:19;9.73;;;5.32;;
71969;SDS011;59838;52.152;5.436;2022-12-18T15:18:00;10.77;;;6.22;;
71969;SDS011;59838;52.152;5.436;2022-12-18T15:20:27;15.20;;;5.90;;
71969;SDS011;59838;52.152;5.436;2022-12-18T15:22:58;13.85;;;5.63;;
71969;SDS011;59838;52.152;5.436;2022-12-18T15:25:32;11.82;;;5.90;;
71969;SDS011;59838;52.152;5.436;2022-12-18T15:28:03;11.27;;;5.53;;
71969;SDS011;59838;52.152;5.436;2022-12-18T15:30:57;15.13;;;6.15;;
71969;SDS011;59838;52.152;5.436;2022-12-18T15:33:33;10.55;;;5.82;;
71969;SDS011;59838;52.152;5.436;2022-12-18T15:36:04;9.73;;;6.07;;
71969;SDS011;59838;52.152;5.436;2022-12-18T15:38:34;12.20;;;5.65;;
71969;SDS011;59838;52.152;5.436;2022-12-18T15:41:01;15.40;;;6.30;;
71969;SDS011;59838;52.152;5.436;2022-12-18T15:43:28;15.02;;;5.90;;
71969;SDS011;59838;52.152;5.436;2022-12-18T15:46:02;9.70;;;5.20;;
71969;SDS011;59838;52.152;5.436;2022-12-18T15:48:33;15.32;;;6.55;;
71969;SDS011;59838;52.152;5.436;2022-12-18T15:51:01;14.70;;;6.28;;
71969;SDS011;59838;52.152;5.436;2022-12-18T15:53:30;13.00;;;6.28;;
71969;SDS011;59838;52.152;5.436;2022-12-18T15:55:58;13.35;;;6.40;;
71969;SDS011;59838;52.152;5.436;2022-12-18T15:58:44;12.20;;;5.68;;
71969;SDS011;59838;52.152;5.436;2022-12-18T16:01:10;18.05;;;6.80;;
71969;SDS011;59838;52.152;5.436;2022-12-18T16:03:37;13.77;;;6.88;;
71969;SDS011;59838;52.152;5.436;2022-12-18T16:06:05;12.87;;;6.50;;
71969;SDS011;59838;52.152;5.436;2022-12-18T16:08:31;15.93;;;7.32;;
71969;SDS011;59838;52.152;5.436;2022-12-18T16:10:58;11.90;;;6.57;;
71969;SDS011;59838;52.152;5.436;2022-12-18T16:13:26;12.50;;;6.25;;
71969;SDS011;59838;52.152;5.436;2022-12-18T16:15:52;13.55;;;6.50;;
71969;SDS011;59838;52.152;5.436;2022-12-18T16:18:19;13.10;;;6.57;;
71969;SDS011;59838;52.152;5.436;2022-12-18T16:20:45;20.77;;;7.22;;
71969;SDS011;59838;52.152;5.436;2022-12-18T16:23:11;13.55;;;5.93;;
71969;SDS011;59838;52.152;5.436;2022-12-18T16:25:38;11.63;;;5.95;;
71969;SDS011;59838;52.152;5.436;2022-12-18T16:28:05;15.05;;;7.22;;
71969;SDS011;59838;52.152;5.436;2022-12-18T16:30:31;13.20;;;6.70;;